createdAt,value
2022-09-22T00:00:52.176Z,13.13
2022-09-22T00:01:52.149Z,13.13
2022-09-22T00:02:52.096Z,13.16
2022-09-22T00:03:52.079Z,13.01
2022-09-22T00:04:52.067Z,13.04
2022-09-22T00:05:52.088Z,13.00
2022-09-22T00:06:52.054Z,13.00
2022-09-22T00:07:52.061Z,13.03
2022-09-22T00:08:52.029Z,12.97
2022-09-22T00:09:52.040Z,13.03
2022-09-22T00:10:52.344Z,13.00
2022-09-22T00:11:51.998Z,13.05
2022-09-22T00:12:51.983Z,13.00
2022-09-22T00:13:52.005Z,13.08
2022-09-22T00:14:51.962Z,13.01
2022-09-22T00:15:51.997Z,12.95
2022-09-22T00:16:51.935Z,12.97
2022-09-22T00:17:51.943Z,12.97
2022-09-22T00:18:51.916Z,12.93
2022-09-22T00:19:51.904Z,12.93
2022-09-22T00:20:51.886Z,12.93
2022-09-22T00:21:51.881Z,12.86
2022-09-22T00:22:51.883Z,12.76
2022-09-22T00:23:51.860Z,12.75
2022-09-22T00:24:51.847Z,12.76
2022-09-22T00:25:51.853Z,12.65
2022-09-22T00:26:51.821Z,12.67
2022-09-22T00:27:52.377Z,12.49
2022-09-22T00:28:51.802Z,12.47
2022-09-22T00:29:51.805Z,12.47
2022-09-22T00:30:51.776Z,12.49
2022-09-22T00:31:51.869Z,12.39
2022-09-22T00:32:51.771Z,12.39
2022-09-22T00:33:52.304Z,12.40
2022-09-22T00:34:51.738Z,12.36
2022-09-22T00:35:51.732Z,12.25
2022-09-22T00:36:51.754Z,12.28
2022-09-22T00:37:55.124Z,12.21
2022-09-22T00:38:51.698Z,12.22
2022-09-22T00:39:51.683Z,12.21
2022-09-22T00:40:51.667Z,12.12
2022-09-22T00:41:51.690Z,12.12
2022-09-22T00:42:51.666Z,12.12
2022-09-22T00:43:51.637Z,12.03
2022-09-22T00:44:51.985Z,12.03
2022-09-22T00:45:51.621Z,12.04
2022-09-22T00:46:51.728Z,12.06
2022-09-22T00:47:51.605Z,12.03
2022-09-22T00:48:51.623Z,12.00
2022-09-22T00:49:51.573Z,11.99
2022-09-22T00:50:51.599Z,11.87
2022-09-22T00:51:51.550Z,11.90
2022-09-22T00:52:51.547Z,11.94
2022-09-22T00:53:51.522Z,11.88
2022-09-22T00:54:51.516Z,11.83
2022-09-22T00:55:51.510Z,11.84
2022-09-22T00:56:51.490Z,11.73
2022-09-22T00:57:52.106Z,11.80
2022-09-22T00:58:51.464Z,11.75
2022-09-22T00:59:51.553Z,11.78
2022-09-22T01:00:51.545Z,11.69
2022-09-22T01:01:51.479Z,11.69
2022-09-22T01:02:51.918Z,11.65
2022-09-22T01:03:51.413Z,11.59
2022-09-22T01:04:51.405Z,11.70
2022-09-22T01:05:52.533Z,11.68
2022-09-22T01:06:51.378Z,11.54
2022-09-22T01:07:51.371Z,11.65
2022-09-22T01:08:51.375Z,11.66
2022-09-22T01:09:51.346Z,11.66
2022-09-22T01:10:51.331Z,11.57
2022-09-22T01:11:51.326Z,11.55
2022-09-22T01:12:52.306Z,11.50
2022-09-22T01:13:51.319Z,11.55
2022-09-22T01:14:51.290Z,11.50
2022-09-22T01:15:51.300Z,11.51
2022-09-22T01:16:51.441Z,11.48
2022-09-22T01:17:51.258Z,11.50
2022-09-22T01:18:51.259Z,11.52
2022-09-22T01:19:51.232Z,11.55
2022-09-22T01:20:51.238Z,11.54
2022-09-22T01:21:51.215Z,11.63
2022-09-22T01:22:52.476Z,11.63
2022-09-22T01:23:51.214Z,11.63
2022-09-22T01:24:51.176Z,11.65
2022-09-22T01:25:51.171Z,11.60
2022-09-22T01:26:51.156Z,11.57
2022-09-22T01:27:51.149Z,11.47
2022-09-22T01:28:51.147Z,11.55
2022-09-22T01:29:51.146Z,11.51
2022-09-22T01:30:51.298Z,11.51
2022-09-22T01:31:51.101Z,11.54
2022-09-22T01:32:51.093Z,11.57
2022-09-22T01:33:51.114Z,11.70
2022-09-22T01:34:51.067Z,11.65
2022-09-22T01:35:51.058Z,11.66
2022-09-22T01:36:51.047Z,11.69
2022-09-22T01:37:51.860Z,11.66
2022-09-22T01:38:53.269Z,11.63
2022-09-22T01:39:51.011Z,11.60
2022-09-22T01:40:51.000Z,11.59
2022-09-22T01:41:50.994Z,11.69
2022-09-22T01:42:50.995Z,11.63
2022-09-22T01:43:50.985Z,11.68
2022-09-22T01:44:50.958Z,11.65
2022-09-22T01:45:50.965Z,11.57
2022-09-22T01:46:50.975Z,11.59
2022-09-22T01:47:50.942Z,11.50
2022-09-22T01:48:50.916Z,11.60
2022-09-22T01:49:50.901Z,11.60
2022-09-22T01:50:50.941Z,11.57
2022-09-22T01:51:50.920Z,11.45
2022-09-22T01:52:50.867Z,11.44
2022-09-22T01:53:50.876Z,11.36
2022-09-22T01:54:50.884Z,11.37
2022-09-22T01:55:50.836Z,11.32
2022-09-22T01:56:51.742Z,11.36
2022-09-22T01:57:50.813Z,11.30
2022-09-22T01:58:50.797Z,11.32
2022-09-22T01:59:50.797Z,11.30
2022-09-22T02:00:50.778Z,11.27
2022-09-22T02:01:50.937Z,11.17
2022-09-22T02:02:50.891Z,11.18
2022-09-22T02:03:50.746Z,11.19
2022-09-22T02:04:50.738Z,11.22
2022-09-22T02:05:50.871Z,11.14
2022-09-22T02:06:52.135Z,11.12
2022-09-22T02:07:51.375Z,11.14
2022-09-22T02:08:50.691Z,11.15
2022-09-22T02:09:50.702Z,11.17
2022-09-22T02:10:50.668Z,11.14
2022-09-22T02:11:51.395Z,11.08
2022-09-22T02:12:50.641Z,11.08
2022-09-22T02:13:50.658Z,11.07
2022-09-22T02:14:50.624Z,10.97
2022-09-22T02:15:50.770Z,11.04
2022-09-22T02:16:50.618Z,10.96
2022-09-22T02:17:50.608Z,10.79
2022-09-22T02:18:50.575Z,10.76
2022-09-22T02:19:50.565Z,10.75
2022-09-22T02:20:50.553Z,10.76
2022-09-22T02:21:50.585Z,10.84
2022-09-22T02:22:50.663Z,10.74
2022-09-22T02:23:50.523Z,10.72
2022-09-22T02:24:50.509Z,10.78
2022-09-22T02:25:50.499Z,10.78
2022-09-22T02:26:50.499Z,10.68
2022-09-22T02:27:53.620Z,10.69
2022-09-22T02:28:50.461Z,10.68
2022-09-22T02:29:50.453Z,10.68
2022-09-22T02:31:10.434Z,10.57
2022-09-22T02:31:52.450Z,10.60
2022-09-22T02:32:50.419Z,10.61
2022-09-22T02:33:50.424Z,10.59
2022-09-22T02:34:50.410Z,10.63
2022-09-22T02:35:50.390Z,10.64
2022-09-22T02:36:50.375Z,10.56
2022-09-22T02:37:50.378Z,10.59
2022-09-22T02:38:50.357Z,10.56
2022-09-22T02:39:50.349Z,10.59
2022-09-22T02:40:50.423Z,10.53
2022-09-22T02:41:50.324Z,10.56
2022-09-22T02:42:50.348Z,10.46
2022-09-22T02:43:50.510Z,10.49
2022-09-22T02:44:50.286Z,10.48
2022-09-22T02:45:50.331Z,10.48
2022-09-22T02:46:50.297Z,10.46
2022-09-22T02:47:50.251Z,10.49
2022-09-22T02:48:50.242Z,10.46
2022-09-22T02:49:50.250Z,10.38
2022-09-22T02:50:50.229Z,10.44
2022-09-22T02:51:50.227Z,10.33
2022-09-22T02:52:50.194Z,10.34
2022-09-22T02:53:50.181Z,10.38
2022-09-22T02:54:50.203Z,10.33
2022-09-22T02:55:51.515Z,10.41
2022-09-22T02:56:50.877Z,10.35
2022-09-22T02:57:50.142Z,10.37
2022-09-22T02:58:50.133Z,10.37
2022-09-22T02:59:50.122Z,10.30
2022-09-22T03:00:50.512Z,10.28
2022-09-22T03:01:50.234Z,10.30
2022-09-22T03:02:50.115Z,10.30
2022-09-22T03:03:50.089Z,10.26
2022-09-22T03:04:50.134Z,10.31
2022-09-22T03:05:51.566Z,10.33
2022-09-22T03:06:50.034Z,10.28
2022-09-22T03:07:50.029Z,10.26
2022-09-22T03:08:50.020Z,10.26
2022-09-22T03:09:50.005Z,10.20
2022-09-22T03:10:50.007Z,10.17
2022-09-22T03:11:49.980Z,10.20
2022-09-22T03:13:14.367Z,10.25
2022-09-22T03:13:50.962Z,10.23
2022-09-22T03:14:49.980Z,10.10
2022-09-22T03:15:50.067Z,10.15
2022-09-22T03:16:49.921Z,10.04
2022-09-22T03:17:49.945Z,10.01
2022-09-22T03:18:49.919Z,9.98
2022-09-22T03:19:49.892Z,10.05
2022-09-22T03:20:49.877Z,9.99
2022-09-22T03:21:49.897Z,9.97
2022-09-22T03:22:49.853Z,9.92
2022-09-22T03:23:50.415Z,10.02
2022-09-22T03:24:58.906Z,9.99
2022-09-22T03:25:49.829Z,9.89
2022-09-22T03:26:49.815Z,9.92
2022-09-22T03:27:49.830Z,9.89
2022-09-22T03:28:49.815Z,9.84
2022-09-22T03:29:49.781Z,9.91
2022-09-22T03:30:49.806Z,9.87
2022-09-22T03:31:49.759Z,9.86
2022-09-22T03:32:49.760Z,9.80
2022-09-22T03:33:52.737Z,9.87
2022-09-22T03:34:49.730Z,9.91
2022-09-22T03:35:49.721Z,9.76
2022-09-22T03:36:49.771Z,9.86
2022-09-22T03:37:49.710Z,9.79
2022-09-22T03:38:49.705Z,9.76
2022-09-22T03:39:49.673Z,9.77
2022-09-22T03:40:49.726Z,9.76
2022-09-22T03:41:49.653Z,9.80
2022-09-22T03:42:49.641Z,9.74
2022-09-22T03:43:49.700Z,9.76
2022-09-22T03:44:49.619Z,9.79
2022-09-22T03:45:49.656Z,9.80
2022-09-22T03:46:49.595Z,9.77
2022-09-22T03:47:49.589Z,9.77
2022-09-22T03:48:49.597Z,9.79
2022-09-22T03:49:49.625Z,9.79
2022-09-22T03:50:49.554Z,9.77
2022-09-22T03:51:49.542Z,9.79
2022-09-22T03:52:49.529Z,9.66
2022-09-22T03:53:49.552Z,9.73
2022-09-22T03:54:49.502Z,9.72
2022-09-22T03:55:49.577Z,9.77
2022-09-22T03:56:49.508Z,9.73
2022-09-22T03:57:49.492Z,9.80
2022-09-22T03:58:49.484Z,9.65
2022-09-22T03:59:49.452Z,9.64
2022-09-22T04:00:49.476Z,9.69
2022-09-22T04:01:49.527Z,9.80
2022-09-22T04:02:49.497Z,9.66
2022-09-22T04:03:49.408Z,9.74
2022-09-22T04:04:49.400Z,9.65
2022-09-22T04:05:49.384Z,9.61
2022-09-22T04:06:49.388Z,9.61
2022-09-22T04:07:49.365Z,9.56
2022-09-22T04:08:49.383Z,9.59
2022-09-22T04:09:49.365Z,9.64
2022-09-22T04:10:49.333Z,9.65
2022-09-22T04:11:49.339Z,9.66
2022-09-22T04:12:49.306Z,9.66
2022-09-22T04:13:49.297Z,9.68
2022-09-22T04:14:49.358Z,9.62
2022-09-22T04:15:49.280Z,9.68
2022-09-22T04:16:49.311Z,9.73
2022-09-22T04:17:49.275Z,9.76
2022-09-22T04:18:49.257Z,9.87
2022-09-22T04:19:49.240Z,9.84
2022-09-22T04:20:49.231Z,9.87
2022-09-22T04:21:52.089Z,9.92
2022-09-22T04:22:50.199Z,9.95
2022-09-22T04:23:49.227Z,9.97
2022-09-22T04:24:49.224Z,9.97
2022-09-22T04:25:49.941Z,10.05
2022-09-22T04:27:08.612Z,10.07
2022-09-22T04:27:50.142Z,10.04
2022-09-22T04:28:49.137Z,10.02
2022-09-22T04:29:49.153Z,10.02
2022-09-22T04:30:49.220Z,10.05
2022-09-22T04:31:49.147Z,10.02
2022-09-22T04:32:49.089Z,10.02
2022-09-22T04:33:49.079Z,10.01
2022-09-22T04:34:49.085Z,9.94
2022-09-22T04:35:49.058Z,9.98
2022-09-22T04:36:49.059Z,9.91
2022-09-22T04:37:49.066Z,9.97
2022-09-22T04:38:49.043Z,9.94
2022-09-22T04:39:49.014Z,9.87
2022-09-22T04:40:49.074Z,9.76
2022-09-22T04:41:49.067Z,9.77
2022-09-22T04:42:48.980Z,9.77
2022-09-22T04:43:48.962Z,9.79
2022-09-22T04:44:48.970Z,9.79
2022-09-22T04:45:49.123Z,9.73
2022-09-22T04:46:48.962Z,9.77
2022-09-22T04:47:48.921Z,9.68
2022-09-22T04:48:48.913Z,9.65
2022-09-22T04:49:48.945Z,9.62
2022-09-22T04:50:48.888Z,9.58
2022-09-22T04:51:48.872Z,9.55
2022-09-22T04:52:48.871Z,9.64
2022-09-22T04:53:57.779Z,9.64
2022-09-22T04:54:48.845Z,9.54
2022-09-22T04:55:48.834Z,9.55
2022-09-22T04:56:48.824Z,9.54
2022-09-22T04:57:49.054Z,9.61
2022-09-22T04:58:48.818Z,9.58
2022-09-22T04:59:48.792Z,9.55
2022-09-22T05:00:48.778Z,9.55
2022-09-22T05:01:48.936Z,9.61
2022-09-22T05:02:48.793Z,9.50
2022-09-22T05:03:48.764Z,9.51
2022-09-22T05:04:48.742Z,9.59
2022-09-22T05:05:48.723Z,9.59
2022-09-22T05:06:48.718Z,9.55
2022-09-22T05:07:48.699Z,9.56
2022-09-22T05:08:48.690Z,9.61
2022-09-22T05:09:48.696Z,9.59
2022-09-22T05:10:48.672Z,9.59
2022-09-22T05:11:48.657Z,9.59
2022-09-22T05:12:48.668Z,9.59
2022-09-22T05:13:48.655Z,9.64
2022-09-22T05:14:48.627Z,9.59
2022-09-22T05:15:48.630Z,9.66
2022-09-22T05:16:48.658Z,9.62
2022-09-22T05:17:48.592Z,9.65
2022-09-22T05:18:48.671Z,9.65
2022-09-22T05:19:48.579Z,9.64
2022-09-22T05:20:48.561Z,9.62
2022-09-22T05:21:48.571Z,9.62
2022-09-22T05:22:48.539Z,9.61
2022-09-22T05:23:48.527Z,9.64
2022-09-22T05:24:48.517Z,9.62
2022-09-22T05:25:48.504Z,9.66
2022-09-22T05:26:48.539Z,9.61
2022-09-22T05:27:48.482Z,9.66
2022-09-22T05:28:48.477Z,9.62
2022-09-22T05:29:48.531Z,9.66
2022-09-22T05:30:48.449Z,9.68
2022-09-22T05:31:48.543Z,9.64
2022-09-22T05:32:48.432Z,9.69
2022-09-22T05:33:48.420Z,9.66
2022-09-22T05:34:49.312Z,9.73
2022-09-22T05:35:48.412Z,9.61
2022-09-22T05:36:48.381Z,9.62
2022-09-22T05:37:48.374Z,9.64
2022-09-22T05:38:48.390Z,9.74
2022-09-22T05:39:48.370Z,9.73
2022-09-22T05:40:48.456Z,9.79
2022-09-22T05:41:48.330Z,9.76
2022-09-22T05:42:48.324Z,9.77
2022-09-22T05:43:48.309Z,9.77
2022-09-22T05:44:48.299Z,9.77
2022-09-22T05:45:48.353Z,9.79
2022-09-22T05:46:48.277Z,9.86
2022-09-22T05:47:48.265Z,9.77
2022-09-22T05:48:48.251Z,9.73
2022-09-22T05:49:48.262Z,9.74
2022-09-22T05:50:48.349Z,9.77
2022-09-22T05:51:48.217Z,9.87
2022-09-22T05:52:48.219Z,9.89
2022-09-22T05:53:48.194Z,9.89
2022-09-22T05:54:48.213Z,9.92
2022-09-22T05:55:48.182Z,9.89
2022-09-22T05:56:48.168Z,10.02
2022-09-22T05:57:48.154Z,9.94
2022-09-22T05:58:48.144Z,10.17
2022-09-22T05:59:49.733Z,10.68
2022-09-22T06:00:48.159Z,11.40
2022-09-22T06:01:48.173Z,12.09
2022-09-22T06:02:48.209Z,12.72
2022-09-22T06:03:48.086Z,13.22
2022-09-22T06:04:49.830Z,13.78
2022-09-22T06:05:48.104Z,14.30
2022-09-22T06:06:48.053Z,14.59
2022-09-22T06:07:48.223Z,15.03
2022-09-22T06:08:49.216Z,15.54
2022-09-22T06:09:48.043Z,15.97
2022-09-22T06:10:48.013Z,16.28
2022-09-22T06:11:47.998Z,16.56
2022-09-22T06:12:47.985Z,16.79
2022-09-22T06:13:47.974Z,17.09
2022-09-22T06:14:47.990Z,17.33
2022-09-22T06:15:47.949Z,17.22
2022-09-22T06:16:48.073Z,16.26
2022-09-22T06:17:47.946Z,16.05
2022-09-22T06:18:48.028Z,16.53
2022-09-22T06:19:50.210Z,17.16
2022-09-22T06:20:47.938Z,16.76
2022-09-22T06:21:47.889Z,17.11
2022-09-22T06:22:47.872Z,17.39
2022-09-22T06:23:47.864Z,17.71
2022-09-22T06:24:47.932Z,18.35
2022-09-22T06:25:47.862Z,18.73
2022-09-22T06:26:47.852Z,19.15
2022-09-22T06:27:47.822Z,19.40
2022-09-22T06:28:47.807Z,19.77
2022-09-22T06:29:47.832Z,19.91
2022-09-22T06:30:47.789Z,20.11
2022-09-22T06:31:47.843Z,20.10
2022-09-22T06:32:47.763Z,19.67
2022-09-22T06:33:47.782Z,20.02
2022-09-22T06:34:47.781Z,20.09
2022-09-22T06:35:47.733Z,19.54
2022-09-22T06:36:47.726Z,19.76
2022-09-22T06:37:47.758Z,20.14
2022-09-22T06:38:47.700Z,20.47
2022-09-22T06:39:47.687Z,20.81
2022-09-22T06:40:47.759Z,21.21
2022-09-22T06:41:47.676Z,20.62
2022-09-22T06:42:47.661Z,20.48
2022-09-22T06:43:47.719Z,20.28
2022-09-22T06:44:47.630Z,20.32
2022-09-22T06:45:47.938Z,20.80
2022-09-22T06:46:47.613Z,21.43
2022-09-22T06:47:47.597Z,21.95
2022-09-22T06:48:47.584Z,22.04
2022-09-22T06:49:47.591Z,22.15
2022-09-22T06:50:47.588Z,22.33
2022-09-22T06:51:47.553Z,22.08
2022-09-22T06:52:47.543Z,22.18
2022-09-22T06:53:51.666Z,21.75
2022-09-22T06:54:48.634Z,21.62
2022-09-22T06:55:48.754Z,21.80
2022-09-22T06:56:47.499Z,22.38
2022-09-22T06:57:47.498Z,22.51
2022-09-22T06:59:08.747Z,22.62
2022-09-22T06:59:48.465Z,22.59
2022-09-22T07:00:47.565Z,23.15
2022-09-22T07:01:47.627Z,23.23
2022-09-22T07:02:47.593Z,23.50
2022-09-22T07:03:47.423Z,23.81
2022-09-22T07:04:47.442Z,24.17
2022-09-22T07:05:47.443Z,24.50
2022-09-22T07:06:47.402Z,24.81
2022-09-22T07:07:47.393Z,25.18
2022-09-22T07:08:47.369Z,25.33
2022-09-22T07:09:47.519Z,25.58
2022-09-22T07:10:47.350Z,25.78
2022-09-22T07:11:47.338Z,25.40
2022-09-22T07:12:47.330Z,25.62
2022-09-22T07:13:47.369Z,25.78
2022-09-22T07:14:47.303Z,26.33
2022-09-22T07:15:47.314Z,26.73
2022-09-22T07:16:47.354Z,26.74
2022-09-22T07:17:47.268Z,26.75
2022-09-22T07:18:47.273Z,27.15
2022-09-22T07:19:47.528Z,27.39
2022-09-22T07:20:47.271Z,27.63
2022-09-22T07:21:47.242Z,27.55
2022-09-22T07:22:47.226Z,27.42
2022-09-22T07:23:47.205Z,27.40
2022-09-22T07:24:47.197Z,27.59
2022-09-22T07:25:47.208Z,27.73
2022-09-22T07:26:47.172Z,27.77
2022-09-22T07:27:47.161Z,27.77
2022-09-22T07:28:47.151Z,27.65
2022-09-22T07:29:47.140Z,27.74
2022-09-22T07:30:47.187Z,27.80
2022-09-22T07:31:47.212Z,28.01
2022-09-22T07:32:47.107Z,28.26
2022-09-22T07:33:47.094Z,28.00
2022-09-22T07:34:47.086Z,27.74
2022-09-22T07:35:47.091Z,27.07
2022-09-22T07:36:47.978Z,26.60
2022-09-22T07:37:47.067Z,26.31
2022-09-22T07:38:47.041Z,26.18
2022-09-22T07:39:47.029Z,26.56
2022-09-22T07:40:47.079Z,27.37
2022-09-22T07:41:47.009Z,28.11
2022-09-22T07:42:47.022Z,28.23
2022-09-22T07:43:46.988Z,28.52
2022-09-22T07:44:46.973Z,28.85
2022-09-22T07:45:46.987Z,29.16
2022-09-22T07:46:47.053Z,29.41
2022-09-22T07:47:46.943Z,28.94
2022-09-22T07:48:46.940Z,29.10
2022-09-22T07:49:46.924Z,29.44
2022-09-22T07:50:46.929Z,29.68
2022-09-22T07:51:46.903Z,29.93
2022-09-22T07:52:46.894Z,30.18
2022-09-22T07:53:46.954Z,30.43
2022-09-22T07:54:46.865Z,30.84
2022-09-22T07:55:46.876Z,31.18
2022-09-22T07:56:46.847Z,31.39
2022-09-22T07:57:46.836Z,31.31
2022-09-22T07:58:46.829Z,30.92
2022-09-22T07:59:46.849Z,30.78
2022-09-22T08:00:46.869Z,30.65
2022-09-22T08:01:46.831Z,30.46
2022-09-22T08:02:46.785Z,30.03
2022-09-22T08:03:46.776Z,29.65
2022-09-22T08:04:46.797Z,29.79
2022-09-22T08:05:46.752Z,29.66
2022-09-22T08:06:46.775Z,30.13
2022-09-22T08:07:46.730Z,30.84
2022-09-22T08:08:46.719Z,31.37
2022-09-22T08:09:46.726Z,31.40
2022-09-22T08:10:46.716Z,31.39
2022-09-22T08:11:46.681Z,31.46
2022-09-22T08:12:46.674Z,31.24
2022-09-22T08:13:46.666Z,31.00
2022-09-22T08:14:46.652Z,31.02
2022-09-22T08:15:46.690Z,31.05
2022-09-22T08:16:46.630Z,31.44
2022-09-22T08:17:46.626Z,31.85
2022-09-22T08:18:46.606Z,32.04
2022-09-22T08:19:46.601Z,32.09
2022-09-22T08:20:46.612Z,32.04
2022-09-22T08:21:49.302Z,32.12
2022-09-22T08:22:46.570Z,32.29
2022-09-22T08:23:46.717Z,32.49
2022-09-22T08:24:46.555Z,32.85
2022-09-22T08:25:46.554Z,32.86
2022-09-22T08:26:48.355Z,32.23
2022-09-22T08:27:46.523Z,32.56
2022-09-22T08:28:46.506Z,33.04
2022-09-22T08:29:46.644Z,33.58
2022-09-22T08:30:46.510Z,33.87
2022-09-22T08:31:46.524Z,33.57
2022-09-22T08:32:46.462Z,33.00
2022-09-22T08:33:46.470Z,31.64
2022-09-22T08:34:46.442Z,29.69
2022-09-22T08:35:46.436Z,27.93
2022-09-22T08:36:46.595Z,28.33
2022-09-22T08:37:46.410Z,29.49
2022-09-22T08:38:46.405Z,30.63
2022-09-22T08:39:46.389Z,31.49
2022-09-22T08:40:46.421Z,32.01
2022-09-22T08:41:46.431Z,32.51
2022-09-22T08:42:46.546Z,32.86
2022-09-22T08:43:46.405Z,32.19
2022-09-22T08:44:46.343Z,30.47
2022-09-22T08:45:46.336Z,28.33
2022-09-22T08:46:46.515Z,28.51
2022-09-22T08:47:46.308Z,29.24
2022-09-22T08:48:46.327Z,30.18
2022-09-22T08:49:46.294Z,31.02
2022-09-22T08:50:46.287Z,31.51
2022-09-22T08:51:46.266Z,32.09
2022-09-22T08:52:46.279Z,31.43
2022-09-22T08:53:46.246Z,31.42
2022-09-22T08:54:46.234Z,32.15
2022-09-22T08:55:46.244Z,32.95
2022-09-22T08:56:46.215Z,33.98
2022-09-22T08:57:46.223Z,34.32
2022-09-22T08:58:46.192Z,32.00
2022-09-22T08:59:46.380Z,31.28
2022-09-22T09:00:46.185Z,30.80
2022-09-22T09:01:46.215Z,31.40
2022-09-22T09:02:46.199Z,31.65
2022-09-22T09:03:46.143Z,32.60
2022-09-22T09:04:46.132Z,33.58
2022-09-22T09:05:46.552Z,34.06
2022-09-22T09:06:46.322Z,33.98
2022-09-22T09:07:46.148Z,33.59
2022-09-22T09:08:46.088Z,33.77
2022-09-22T09:09:46.084Z,33.73
2022-09-22T09:10:46.070Z,33.39
2022-09-22T09:11:48.241Z,31.17
2022-09-22T09:12:46.049Z,30.87
2022-09-22T09:13:46.076Z,31.78
2022-09-22T09:14:46.284Z,32.73
2022-09-22T09:15:46.065Z,32.63
2022-09-22T09:16:46.027Z,31.84
2022-09-22T09:17:45.999Z,32.89
2022-09-22T09:18:46.126Z,33.79
2022-09-22T09:19:45.980Z,33.69
2022-09-22T09:20:45.981Z,34.38
2022-09-22T09:21:45.963Z,34.62
2022-09-22T09:22:48.464Z,34.80
2022-09-22T09:26:11.826Z,34.70
2022-09-22T09:27:11.638Z,34.18
2022-09-22T09:28:11.626Z,34.16
2022-09-22T09:29:11.673Z,34.20
2022-09-22T09:30:11.606Z,34.08
2022-09-22T09:31:11.659Z,34.42
2022-09-22T09:32:11.586Z,34.90
2022-09-22T09:33:11.580Z,33.58
2022-09-22T09:34:11.589Z,32.11
2022-09-22T09:35:11.557Z,30.18
2022-09-22T09:36:11.569Z,28.85
2022-09-22T09:37:11.534Z,27.51
2022-09-22T09:38:11.541Z,26.29
2022-09-22T09:39:11.624Z,25.43
2022-09-22T09:40:11.533Z,26.40
2022-09-22T09:41:11.494Z,28.02
2022-09-22T09:42:11.482Z,28.49
2022-09-22T09:43:11.503Z,27.74
2022-09-22T09:44:11.463Z,26.77
2022-09-22T09:45:11.480Z,25.84
2022-09-22T09:46:11.465Z,25.10
2022-09-22T09:47:11.432Z,24.18
2022-09-22T09:48:11.438Z,23.66
2022-09-22T09:49:11.407Z,23.05
2022-09-22T09:50:11.395Z,23.17
2022-09-22T09:51:11.387Z,25.10
2022-09-22T09:52:11.371Z,26.62
2022-09-22T09:53:11.376Z,26.45
2022-09-22T09:54:16.036Z,25.81
2022-09-22T09:55:12.340Z,25.47
2022-09-22T09:56:11.350Z,24.65
2022-09-22T09:57:11.336Z,23.91
2022-09-22T09:58:11.936Z,23.98
2022-09-22T09:59:11.297Z,24.81
2022-09-22T10:00:11.331Z,24.65
2022-09-22T10:01:11.289Z,24.30
2022-09-22T10:02:11.342Z,23.80
2022-09-22T10:03:11.261Z,24.35
2022-09-22T10:04:11.251Z,25.32
2022-09-22T10:05:11.255Z,25.48
2022-09-22T10:06:11.236Z,25.13
2022-09-22T10:07:11.219Z,24.86
2022-09-22T10:08:11.217Z,24.89
2022-09-22T10:09:11.188Z,25.08
2022-09-22T10:10:11.204Z,26.93
2022-09-22T10:11:11.160Z,27.60
2022-09-22T10:12:11.153Z,28.76
2022-09-22T10:13:13.574Z,28.93
2022-09-22T10:14:11.133Z,27.98
2022-09-22T10:15:11.195Z,27.07
2022-09-22T10:16:11.163Z,26.36
2022-09-22T10:17:11.221Z,25.46
2022-09-22T10:18:11.087Z,24.73
2022-09-22T10:19:11.146Z,24.20
2022-09-22T10:20:11.064Z,23.66
2022-09-22T10:21:11.070Z,23.21
2022-09-22T10:22:11.042Z,23.05
2022-09-22T10:23:11.080Z,22.94
2022-09-22T10:24:11.023Z,22.60
2022-09-22T10:25:11.011Z,22.28
2022-09-22T10:26:10.998Z,22.08
2022-09-22T10:27:10.985Z,21.55
2022-09-22T10:28:10.980Z,21.46
2022-09-22T10:29:10.983Z,21.18
2022-09-22T10:30:10.962Z,21.14
2022-09-22T10:31:11.007Z,20.96
2022-09-22T10:32:11.483Z,20.78
2022-09-22T10:33:10.935Z,20.63
2022-09-22T10:34:10.912Z,20.60
2022-09-22T10:35:10.899Z,20.80
2022-09-22T10:36:12.177Z,21.35
2022-09-22T10:37:10.890Z,23.36
2022-09-22T10:38:11.479Z,25.33
2022-09-22T10:39:10.857Z,27.08
2022-09-22T10:40:10.866Z,27.80
2022-09-22T10:41:10.830Z,28.23
2022-09-22T10:42:10.841Z,28.79
2022-09-22T10:43:10.810Z,29.86
2022-09-22T10:44:35.030Z,31.33
2022-09-22T10:45:12.457Z,32.45
2022-09-22T10:46:13.139Z,33.50
2022-09-22T10:47:10.771Z,34.40
2022-09-22T10:48:10.787Z,35.12
2022-09-22T10:49:10.837Z,35.61
2022-09-22T10:50:10.741Z,34.83
2022-09-22T10:51:10.739Z,34.47
2022-09-22T10:52:10.778Z,33.47
2022-09-22T10:53:11.546Z,32.40
2022-09-22T10:54:10.696Z,30.80
2022-09-22T10:55:10.697Z,29.95
2022-09-22T10:56:10.693Z,31.02
2022-09-22T10:57:10.663Z,31.71
2022-09-22T10:58:10.651Z,31.06
2022-09-22T10:59:10.639Z,30.15
2022-09-22T11:00:10.647Z,28.41
2022-09-22T11:01:13.452Z,28.63
2022-09-22T11:02:10.611Z,29.29
2022-09-22T11:03:10.604Z,30.25
2022-09-22T11:04:11.009Z,31.28
2022-09-22T11:05:10.653Z,32.09
2022-09-22T11:06:10.569Z,32.55
2022-09-22T11:07:10.556Z,33.09
2022-09-22T11:08:10.715Z,33.50
2022-09-22T11:09:10.549Z,33.71
2022-09-22T11:10:10.649Z,33.76
2022-09-22T11:11:10.520Z,34.05
2022-09-22T11:12:10.509Z,34.35
2022-09-22T11:13:10.516Z,34.64
2022-09-22T11:14:10.488Z,35.19
2022-09-22T11:15:10.476Z,35.37
2022-09-22T11:16:10.523Z,35.68
2022-09-22T11:17:10.462Z,35.55
2022-09-22T11:18:10.468Z,35.15
2022-09-22T11:19:10.455Z,33.47
2022-09-22T11:20:10.501Z,31.43
2022-09-22T11:21:10.436Z,30.02
2022-09-22T11:22:10.408Z,28.86
2022-09-22T11:23:10.394Z,27.87
2022-09-22T11:24:10.975Z,27.18
2022-09-22T11:25:10.676Z,27.18
2022-09-22T11:26:10.366Z,27.93
2022-09-22T11:27:10.387Z,28.72
2022-09-22T11:28:10.344Z,29.02
2022-09-22T11:29:10.355Z,29.29
2022-09-22T11:30:11.152Z,29.79
2022-09-22T11:31:10.358Z,30.53
2022-09-22T11:32:10.302Z,30.46
2022-09-22T11:33:13.163Z,30.16
2022-09-22T11:34:10.284Z,30.43
2022-09-22T11:35:10.271Z,30.32
2022-09-22T11:36:10.269Z,30.47
2022-09-22T11:37:10.263Z,30.78
2022-09-22T11:38:10.302Z,31.15
2022-09-22T11:39:10.228Z,31.39
2022-09-22T11:40:10.341Z,31.43
2022-09-22T11:41:10.211Z,31.36
2022-09-22T11:42:11.198Z,30.34
2022-09-22T11:43:10.186Z,29.90
2022-09-22T11:44:10.206Z,30.08
2022-09-22T11:45:10.167Z,30.12
2022-09-22T11:46:10.268Z,30.08
2022-09-22T11:47:10.177Z,29.56
2022-09-22T11:48:10.140Z,28.84
2022-09-22T11:49:10.127Z,28.52
2022-09-22T11:50:10.132Z,28.54
2022-09-22T11:51:10.106Z,28.75
2022-09-22T11:52:12.751Z,28.70
2022-09-22T11:53:11.102Z,28.59
2022-09-22T11:54:10.139Z,28.60
2022-09-22T11:55:10.324Z,28.60
2022-09-22T11:56:10.068Z,28.59
2022-09-22T11:57:10.047Z,28.63
2022-09-22T11:58:10.038Z,28.91
2022-09-22T11:59:10.287Z,28.84
2022-09-22T12:00:10.040Z,28.52
2022-09-22T12:01:13.381Z,28.07
2022-09-22T12:02:10.208Z,27.49
2022-09-22T12:03:10.158Z,27.03
2022-09-22T12:04:09.976Z,27.14
2022-09-22T12:05:09.986Z,27.54
2022-09-22T12:06:09.970Z,27.83
2022-09-22T12:07:09.945Z,28.01
2022-09-22T12:08:09.936Z,28.07
2022-09-22T12:09:10.165Z,28.19
2022-09-22T12:10:09.916Z,28.26
2022-09-22T12:11:09.920Z,28.35
2022-09-22T12:12:09.923Z,27.98
2022-09-22T12:13:09.886Z,28.01
2022-09-22T12:14:09.926Z,28.22
2022-09-22T12:15:09.867Z,28.22
2022-09-22T12:16:10.136Z,28.07
2022-09-22T12:17:09.846Z,28.32
2022-09-22T12:18:10.497Z,28.64
2022-09-22T12:19:09.827Z,29.12
2022-09-22T12:20:09.889Z,29.19
2022-09-22T12:21:09.806Z,29.10
2022-09-22T12:22:09.795Z,29.12
2022-09-22T12:23:09.781Z,28.81
2022-09-22T12:24:09.786Z,28.60
2022-09-22T12:25:16.748Z,28.66
2022-09-22T12:26:10.777Z,28.66
2022-09-22T12:27:09.744Z,28.62
2022-09-22T12:28:09.737Z,28.48
2022-09-22T12:29:09.784Z,28.20
2022-09-22T12:30:13.572Z,27.93
2022-09-22T12:31:09.950Z,27.05
2022-09-22T12:32:09.696Z,26.31
2022-09-22T12:33:09.764Z,25.88
2022-09-22T12:34:09.674Z,25.87
2022-09-22T12:35:09.682Z,26.00
2022-09-22T12:36:09.658Z,25.62
2022-09-22T12:37:09.678Z,25.50
2022-09-22T12:38:09.634Z,25.47
2022-09-22T12:39:09.623Z,25.54
2022-09-22T12:40:09.662Z,25.65
2022-09-22T12:41:09.618Z,25.33
2022-09-22T12:42:09.611Z,25.04
2022-09-22T12:43:09.583Z,24.84
2022-09-22T12:44:09.572Z,25.17
2022-09-22T12:45:09.564Z,25.54
2022-09-22T12:46:10.085Z,25.46
2022-09-22T12:47:09.615Z,25.01
2022-09-22T12:48:10.548Z,25.06
2022-09-22T12:49:09.516Z,25.29
2022-09-22T12:50:09.609Z,25.48
2022-09-22T12:51:09.518Z,25.78
2022-09-22T12:52:09.507Z,26.02
2022-09-22T12:53:09.476Z,25.29
2022-09-22T12:54:09.466Z,25.18
2022-09-22T12:55:09.472Z,25.06
2022-09-22T12:56:09.450Z,25.17
2022-09-22T12:57:09.461Z,25.32
2022-09-22T12:58:09.446Z,25.68
2022-09-22T12:59:09.417Z,25.91
2022-09-22T13:00:09.406Z,25.81